createdAt,value
2023-05-21T00:01:01.677Z,11.52
2023-05-21T00:03:31.089Z,11.75
2023-05-21T00:06:01.624Z,11.30
2023-05-21T00:08:34.242Z,10.52
2023-05-21T00:11:03.941Z,11.13
2023-05-21T00:13:46.224Z,11.68
2023-05-21T00:16:15.188Z,11.18
2023-05-21T00:18:45.018Z,11.63
2023-05-21T00:21:17.288Z,10.77
2023-05-21T00:23:48.261Z,11.70
2023-05-21T00:26:18.316Z,11.35
2023-05-21T00:28:49.205Z,11.85
2023-05-21T00:31:19.100Z,11.25
2023-05-21T00:33:47.617Z,11.52
2023-05-21T00:36:16.248Z,12.43
2023-05-21T00:38:45.754Z,11.52
2023-05-21T00:41:14.564Z,10.75
2023-05-21T00:43:44.657Z,11.65
2023-05-21T00:46:16.578Z,11.38
2023-05-21T00:48:47.592Z,11.98
2023-05-21T00:51:16.587Z,11.70
2023-05-21T00:53:46.677Z,11.27
2023-05-21T00:56:17.351Z,11.68
2023-05-21T00:58:49.592Z,11.55
2023-05-21T01:01:18.625Z,12.02
2023-05-21T01:03:48.752Z,12.52
2023-05-21T01:06:17.271Z,11.82
2023-05-21T01:08:48.929Z,11.60
2023-05-21T01:11:17.834Z,10.90
2023-05-21T01:13:48.259Z,11.98
2023-05-21T01:16:17.854Z,11.63
2023-05-21T01:18:46.735Z,12.25
2023-05-21T01:21:17.471Z,11.15
2023-05-21T01:23:47.201Z,11.68
2023-05-21T01:26:16.269Z,11.65
2023-05-21T01:28:46.828Z,12.55
2023-05-21T01:31:18.437Z,11.85
2023-05-21T01:33:49.482Z,12.23
2023-05-21T01:36:24.060Z,11.65
2023-05-21T01:38:58.653Z,12.23
2023-05-21T01:41:27.329Z,11.68
2023-05-21T01:43:57.713Z,11.85
2023-05-21T01:46:30.257Z,11.05
2023-05-21T01:48:59.169Z,11.35
2023-05-21T01:51:28.018Z,12.18
2023-05-21T01:54:00.477Z,12.20
2023-05-21T01:56:29.047Z,10.88
2023-05-21T01:58:59.473Z,11.23
2023-05-21T02:01:32.781Z,11.35
2023-05-21T02:04:01.868Z,11.90
2023-05-21T02:06:31.754Z,10.70
2023-05-21T02:09:01.992Z,12.02
2023-05-21T02:11:30.408Z,11.50
2023-05-21T02:13:58.949Z,11.05
2023-05-21T02:16:28.734Z,11.05
2023-05-21T02:19:00.930Z,11.73
2023-05-21T02:21:29.230Z,11.48
2023-05-21T02:23:57.811Z,11.05
2023-05-21T02:26:27.500Z,10.85
2023-05-21T02:28:56.446Z,11.10
2023-05-21T02:31:24.753Z,10.43
2023-05-21T02:33:53.014Z,10.80
2023-05-21T02:36:21.421Z,10.95
2023-05-21T02:38:52.206Z,10.40
2023-05-21T02:41:21.175Z,11.55
2023-05-21T02:43:53.573Z,11.07
2023-05-21T02:46:26.036Z,9.77
2023-05-21T02:48:55.676Z,10.90
2023-05-21T02:51:24.261Z,10.40
2023-05-21T02:53:54.887Z,11.65
2023-05-21T02:56:23.864Z,10.63
2023-05-21T02:58:53.488Z,10.60
2023-05-21T03:01:21.823Z,10.75
2023-05-21T03:03:51.374Z,10.80
2023-05-21T03:06:20.012Z,11.27
2023-05-21T03:08:48.571Z,10.60
2023-05-21T03:11:17.197Z,9.95
2023-05-21T03:13:45.827Z,10.32
2023-05-21T03:16:19.821Z,11.27
2023-05-21T03:18:48.187Z,10.35
2023-05-21T03:21:17.742Z,10.98
2023-05-21T03:23:49.518Z,11.85
2023-05-21T03:26:17.817Z,11.13
2023-05-21T03:28:47.146Z,10.70
2023-05-21T03:31:15.506Z,11.75
2023-05-21T03:33:45.591Z,10.80
2023-05-21T03:36:14.154Z,11.68
2023-05-21T03:38:42.500Z,11.75
2023-05-21T03:41:11.549Z,10.98
2023-05-21T03:43:40.252Z,11.35
2023-05-21T03:46:11.592Z,11.82
2023-05-21T03:48:41.361Z,10.55
2023-05-21T03:51:13.256Z,11.25
2023-05-21T03:53:41.547Z,10.88
2023-05-21T03:56:09.892Z,11.05
2023-05-21T03:58:38.548Z,10.60
2023-05-21T04:01:10.722Z,10.95
2023-05-21T04:03:41.026Z,10.73
2023-05-21T04:06:12.343Z,10.02
2023-05-21T04:08:42.700Z,10.63
2023-05-21T04:11:11.066Z,10.30
2023-05-21T04:13:40.135Z,10.55
2023-05-21T04:16:10.056Z,10.82
2023-05-21T04:18:38.879Z,10.27
2023-05-21T04:21:07.578Z,10.50
2023-05-21T04:23:37.302Z,10.43
2023-05-21T04:26:07.744Z,10.73
2023-05-21T04:28:36.387Z,11.00
2023-05-21T04:31:05.840Z,9.85
2023-05-21T04:33:35.863Z,10.38
2023-05-21T04:36:04.352Z,10.43
2023-05-21T04:38:33.355Z,10.55
2023-05-21T04:41:03.861Z,10.75
2023-05-21T04:43:33.921Z,10.98
2023-05-21T04:46:02.288Z,10.43
2023-05-21T04:48:30.702Z,10.80
2023-05-21T04:50:59.884Z,10.73
2023-05-21T04:53:30.030Z,10.60
2023-05-21T04:55:59.404Z,10.60
2023-05-21T04:58:30.931Z,10.45
2023-05-21T05:01:03.204Z,10.18
2023-05-21T05:03:31.782Z,9.75
2023-05-21T05:06:00.463Z,9.80
2023-05-21T05:08:28.746Z,10.63
2023-05-21T05:10:58.429Z,9.70
2023-05-21T05:13:27.658Z,10.80
2023-05-21T05:15:57.530Z,10.00
2023-05-21T05:18:33.051Z,11.02
2023-05-21T05:21:01.653Z,10.55
2023-05-21T05:23:30.080Z,10.50
2023-05-21T05:25:59.142Z,11.15
2023-05-21T05:28:27.891Z,10.70
2023-05-21T05:30:58.741Z,10.18
2023-05-21T05:33:31.199Z,9.70
2023-05-21T05:35:59.919Z,10.10
2023-05-21T05:38:28.922Z,10.60
2023-05-21T05:41:00.595Z,9.95
2023-05-21T05:43:28.973Z,10.15
2023-05-21T05:45:57.409Z,9.80
2023-05-21T05:48:25.985Z,10.80
2023-05-21T05:50:59.290Z,10.70
2023-05-21T05:53:28.150Z,9.20
2023-05-21T05:55:56.744Z,10.35
2023-05-21T05:58:27.575Z,10.18
2023-05-21T06:00:56.513Z,9.30
2023-05-21T06:03:25.339Z,10.10
2023-05-21T06:05:54.160Z,9.23
2023-05-21T06:08:27.645Z,9.63
2023-05-21T06:10:58.197Z,9.77
2023-05-21T06:13:29.940Z,9.35
2023-05-21T06:15:59.907Z,9.45
2023-05-21T06:18:32.552Z,10.07
2023-05-21T06:21:04.096Z,10.25
2023-05-21T06:23:43.888Z,8.70
2023-05-21T06:26:12.430Z,9.60
2023-05-21T06:28:41.031Z,8.88
2023-05-21T06:31:13.797Z,8.73
2023-05-21T06:33:43.065Z,9.60
2023-05-21T06:36:12.131Z,9.60
2023-05-21T06:38:42.854Z,9.52
2023-05-21T06:41:11.559Z,9.23
2023-05-21T06:43:50.504Z,8.65
2023-05-21T06:46:18.960Z,8.85
2023-05-21T06:48:47.481Z,9.05
2023-05-21T06:51:15.941Z,8.45
2023-05-21T06:53:51.054Z,8.85
2023-05-21T06:56:19.662Z,9.57
2023-05-21T06:58:48.408Z,9.00
2023-05-21T07:01:21.456Z,8.90
2023-05-21T07:03:50.099Z,9.02
2023-05-21T07:06:23.443Z,8.82
2023-05-21T07:08:56.393Z,9.13
2023-05-21T07:11:29.749Z,8.60
2023-05-21T07:14:00.352Z,8.80
2023-05-21T07:16:31.373Z,8.57
2023-05-21T07:19:03.041Z,8.68
2023-05-21T07:21:32.028Z,8.77
2023-05-21T07:24:05.164Z,8.10
2023-05-21T07:26:34.986Z,8.25
2023-05-21T07:29:03.669Z,8.35
2023-05-21T07:31:32.394Z,8.52
2023-05-21T07:34:07.188Z,8.13
2023-05-21T07:36:37.864Z,9.07
2023-05-21T07:39:07.803Z,8.52
2023-05-21T07:41:40.600Z,8.73
2023-05-21T07:44:09.114Z,8.75
2023-05-21T07:46:38.225Z,8.40
2023-05-21T07:49:08.171Z,8.65
2023-05-21T07:51:37.648Z,8.25
2023-05-21T07:54:06.134Z,8.52
2023-05-21T07:56:40.709Z,8.75
2023-05-21T07:59:13.809Z,8.13
2023-05-21T08:01:50.131Z,8.50
2023-05-21T08:04:26.312Z,8.65
2023-05-21T08:09:37.531Z,8.57
2023-05-21T08:12:10.165Z,7.85
2023-05-21T08:14:47.410Z,8.67
2023-05-21T08:17:16.192Z,8.70
2023-05-21T08:19:57.015Z,8.45
2023-05-21T08:22:27.285Z,7.85
2023-05-21T08:25:04.112Z,8.23
2023-05-21T08:27:39.742Z,7.85
2023-05-21T08:30:14.332Z,7.95
2023-05-21T08:32:44.118Z,8.65
2023-05-21T08:35:14.150Z,7.70
2023-05-21T08:37:43.501Z,7.55
2023-05-21T08:40:36.429Z,8.57
2023-05-21T08:43:08.044Z,7.40
2023-05-21T08:45:56.427Z,8.43
2023-05-21T08:48:33.358Z,8.35
2023-05-21T08:51:12.725Z,8.18
2023-05-21T08:53:48.946Z,7.88
2023-05-21T08:59:32.882Z,7.70
2023-05-21T09:02:10.680Z,7.72
2023-05-21T09:04:49.480Z,7.63
2023-05-21T09:07:32.425Z,7.95
2023-05-21T09:10:22.546Z,7.45
2023-05-21T09:13:07.758Z,7.45
2023-05-21T09:15:38.259Z,7.13
2023-05-21T09:18:12.112Z,6.70
2023-05-21T09:23:30.450Z,7.05
2023-05-21T09:26:21.441Z,7.28
2023-05-21T09:28:58.851Z,8.05
2023-05-21T09:31:30.609Z,6.95
2023-05-21T09:33:59.252Z,7.70
2023-05-21T09:36:30.683Z,7.35
2023-05-21T09:39:04.321Z,7.60
2023-05-21T09:41:45.355Z,7.30
2023-05-21T09:44:15.057Z,6.50
2023-05-21T09:46:47.161Z,7.25
2023-05-21T09:49:25.183Z,6.75
2023-05-21T09:52:00.209Z,7.07
2023-05-21T09:54:33.672Z,6.93
2023-05-21T09:57:25.103Z,7.60
2023-05-21T10:00:05.552Z,6.60
2023-05-21T10:02:51.647Z,7.18
2023-05-21T10:05:32.287Z,7.10
2023-05-21T10:08:23.174Z,7.07
2023-05-21T10:11:43.775Z,6.85
2023-05-21T10:21:12.285Z,6.93
2023-05-21T10:39:54.637Z,7.03
2023-05-21T10:42:40.787Z,6.93
2023-05-21T10:46:19.285Z,6.63
2023-05-21T10:48:57.877Z,6.63
2023-05-21T10:51:56.095Z,7.63
2023-05-21T10:54:59.842Z,6.70
2023-05-21T10:58:11.666Z,7.15
2023-05-21T11:04:15.887Z,6.75
2023-05-21T11:07:16.164Z,7.28
2023-05-21T11:10:03.862Z,7.47
2023-05-21T11:12:39.734Z,11.52
2023-05-21T11:15:19.439Z,7.63
2023-05-21T11:17:51.570Z,8.30
2023-05-21T11:20:29.103Z,6.80
2023-05-21T11:23:02.872Z,7.82
2023-05-21T11:25:36.868Z,7.18
2023-05-21T11:28:11.132Z,7.07
2023-05-21T11:45:11.604Z,6.72
2023-05-21T11:49:44.561Z,7.47
2023-05-21T11:57:57.119Z,6.78
2023-05-21T12:01:16.219Z,7.30
2023-05-21T12:03:53.865Z,6.68
2023-05-21T12:06:47.461Z,6.55
2023-05-21T12:09:16.357Z,6.60
2023-05-21T12:12:05.493Z,7.07
2023-05-21T12:14:57.390Z,6.68
2023-05-21T12:18:16.802Z,7.35
2023-05-21T12:21:21.869Z,8.00
2023-05-21T12:24:01.319Z,6.60
2023-05-21T12:26:46.241Z,7.45
2023-05-21T12:29:18.118Z,7.60
2023-05-21T12:31:57.789Z,7.63
2023-05-21T12:34:52.919Z,6.47
2023-05-21T12:37:36.041Z,6.45
2023-05-21T12:40:35.100Z,7.38
2023-05-21T12:43:34.821Z,7.70
2023-05-21T12:49:37.166Z,6.72
2023-05-21T12:53:05.500Z,7.68
2023-05-21T12:58:47.660Z,6.55
2023-05-21T13:01:27.401Z,6.47
2023-05-21T13:04:02.067Z,6.13
2023-05-21T13:06:32.622Z,6.35
2023-05-21T13:09:21.160Z,6.40
2023-05-21T13:12:08.979Z,6.82
2023-05-21T13:14:51.518Z,6.60
2023-05-21T13:17:27.761Z,6.67
2023-05-21T13:20:08.202Z,6.80
2023-05-21T13:22:42.665Z,7.20
2023-05-21T13:25:18.982Z,6.32
2023-05-21T13:27:49.470Z,6.35
2023-05-21T13:30:18.469Z,6.32
2023-05-21T13:32:47.713Z,6.57
2023-05-21T13:35:19.035Z,6.60
2023-05-21T13:37:48.049Z,5.90
2023-05-21T13:40:25.274Z,6.07
2023-05-21T13:43:01.340Z,5.53
2023-05-21T13:45:38.115Z,6.55
2023-05-21T13:48:06.962Z,6.38
2023-05-21T13:50:39.800Z,6.93
2023-05-21T13:53:09.995Z,6.60
2023-05-21T13:55:38.733Z,6.47
2023-05-21T13:58:11.529Z,6.10
2023-05-21T14:00:52.025Z,6.35
2023-05-21T14:03:38.462Z,6.78
2023-05-21T14:06:10.448Z,6.38
2023-05-21T14:08:43.398Z,5.93
2023-05-21T14:11:15.468Z,6.00
2023-05-21T14:13:49.904Z,5.78
2023-05-21T14:16:23.821Z,5.97
2023-05-21T14:19:00.902Z,5.68
2023-05-21T14:21:31.732Z,5.70
2023-05-21T14:24:00.375Z,6.30
2023-05-21T14:26:37.829Z,6.20
2023-05-21T14:29:10.558Z,5.75
2023-05-21T14:31:39.435Z,6.30
2023-05-21T14:34:11.676Z,5.90
2023-05-21T14:36:40.188Z,5.70
2023-05-21T14:39:16.351Z,6.05
2023-05-21T14:41:47.681Z,5.85
2023-05-21T14:44:17.944Z,6.05
2023-05-21T14:46:58.018Z,5.28
2023-05-21T14:49:42.426Z,5.93
2023-05-21T14:52:12.197Z,5.25
2023-05-21T14:54:43.570Z,5.47
2023-05-21T14:57:13.250Z,5.75
2023-05-21T14:59:43.149Z,5.25
2023-05-21T15:02:12.865Z,5.18
2023-05-21T15:04:41.249Z,5.45
2023-05-21T15:07:09.640Z,5.03
2023-05-21T15:09:42.145Z,6.20
2023-05-21T15:12:10.662Z,5.00
2023-05-21T15:14:39.480Z,5.32
2023-05-21T15:17:09.162Z,5.47
2023-05-21T15:19:37.592Z,5.95
2023-05-21T15:22:06.176Z,5.88
2023-05-21T15:24:34.540Z,5.38
2023-05-21T15:27:02.877Z,6.38
2023-05-21T15:29:31.234Z,6.20
2023-05-21T15:32:04.479Z,6.28
2023-05-21T15:34:34.433Z,5.45
2023-05-21T15:37:02.816Z,5.88
2023-05-21T15:39:31.855Z,5.35
2023-05-21T15:42:01.159Z,5.95
2023-05-21T15:44:29.569Z,5.93
2023-05-21T15:46:57.962Z,5.35
2023-05-21T15:49:26.393Z,6.22
2023-05-21T15:51:57.930Z,5.78
2023-05-21T15:54:26.230Z,6.03
2023-05-21T15:56:54.527Z,7.00
2023-05-21T15:59:22.823Z,5.55
2023-05-21T16:01:51.158Z,5.90
2023-05-21T16:04:20.204Z,6.30
2023-05-21T16:06:50.849Z,6.22
2023-05-21T16:09:20.532Z,6.07
2023-05-21T16:11:48.899Z,6.20
2023-05-21T16:14:17.181Z,6.05
2023-05-21T16:16:45.703Z,6.28
2023-05-21T16:19:14.021Z,6.68
2023-05-21T16:21:43.192Z,6.00
2023-05-21T16:24:11.888Z,6.25
2023-05-21T16:26:41.546Z,6.72
2023-05-21T16:29:15.006Z,6.35
2023-05-21T16:31:43.313Z,5.80
2023-05-21T16:34:11.699Z,6.20
2023-05-21T16:36:39.995Z,6.63
2023-05-21T16:39:08.272Z,6.55
2023-05-21T16:41:36.566Z,6.75
2023-05-21T16:44:08.379Z,6.25
2023-05-21T16:46:37.018Z,5.97
2023-05-21T16:49:05.412Z,6.88
2023-05-21T16:51:33.956Z,6.43
2023-05-21T16:54:04.177Z,6.40
2023-05-21T16:56:32.837Z,6.30
2023-05-21T16:59:01.115Z,6.88
2023-05-21T17:01:30.793Z,6.22
2023-05-21T17:03:59.205Z,6.45
2023-05-21T17:06:27.565Z,6.38
2023-05-21T17:08:56.034Z,6.20
2023-05-21T17:11:25.398Z,6.80
2023-05-21T17:13:53.658Z,6.03
2023-05-21T17:16:22.006Z,6.20
2023-05-21T17:18:51.659Z,6.05
2023-05-21T17:21:20.254Z,6.72
2023-05-21T17:23:48.504Z,5.78
2023-05-21T17:26:34.585Z,6.47
2023-05-21T17:29:02.842Z,5.75
2023-05-21T17:31:32.331Z,5.63
2023-05-21T17:34:02.009Z,5.63
2023-05-21T17:36:30.274Z,5.90
2023-05-21T17:38:58.657Z,6.13
2023-05-21T17:41:27.302Z,6.28
2023-05-21T17:43:55.639Z,5.60
2023-05-21T17:46:24.105Z,6.18
2023-05-21T17:48:52.426Z,5.70
2023-05-21T17:51:22.413Z,6.03
2023-05-21T17:53:50.790Z,6.10
2023-05-21T17:56:19.075Z,6.00
2023-05-21T17:58:47.329Z,6.00
2023-05-21T18:01:15.624Z,5.18
2023-05-21T18:03:44.299Z,5.43
2023-05-21T18:06:12.590Z,5.22
2023-05-21T18:08:42.774Z,5.30
2023-05-21T18:11:11.053Z,4.85
2023-05-21T18:13:39.399Z,5.15
2023-05-21T18:16:07.817Z,5.10
2023-05-21T18:18:36.117Z,5.85
2023-05-21T18:21:04.434Z,5.78
2023-05-21T18:23:32.720Z,5.90
2023-05-21T18:26:02.452Z,5.22
2023-05-21T18:28:32.361Z,5.68
2023-05-21T18:31:01.117Z,5.35
2023-05-21T18:33:29.384Z,5.57
2023-05-21T18:35:58.265Z,5.28
2023-05-21T18:38:27.406Z,5.18
2023-05-21T18:40:57.102Z,5.80
2023-05-21T18:43:27.037Z,5.40
2023-05-21T18:45:55.363Z,5.57
2023-05-21T18:48:23.765Z,5.88
2023-05-21T18:50:52.817Z,6.40
2023-05-21T18:53:21.272Z,6.05
2023-05-21T18:55:49.844Z,6.70
2023-05-21T18:58:18.133Z,6.43
2023-05-21T19:00:47.875Z,6.75
2023-05-21T19:03:16.570Z,7.15
2023-05-21T19:05:45.203Z,6.43
2023-05-21T19:08:13.676Z,6.80
2023-05-21T19:10:42.029Z,7.50
2023-05-21T19:13:10.387Z,6.38
2023-05-21T19:15:39.022Z,5.93
2023-05-21T19:18:08.922Z,6.40
2023-05-21T19:20:37.951Z,6.75
2023-05-21T19:23:06.619Z,6.65
2023-05-21T19:25:35.287Z,6.00
2023-05-21T19:28:03.678Z,6.35
2023-05-21T19:30:34.905Z,6.78
2023-05-21T19:33:03.440Z,6.65
2023-05-21T19:35:33.143Z,7.28
2023-05-21T19:38:03.397Z,6.63
2023-05-21T19:40:34.612Z,6.57
2023-05-21T19:43:03.788Z,7.18
2023-05-21T19:45:32.075Z,6.55
2023-05-21T19:48:00.569Z,7.13
2023-05-21T19:50:28.996Z,6.90
2023-05-21T19:52:58.632Z,6.95
2023-05-21T19:55:28.305Z,6.95
2023-05-21T19:57:56.654Z,6.95
2023-05-21T20:00:25.736Z,6.60
2023-05-21T20:02:54.046Z,6.63
2023-05-21T20:05:22.341Z,7.13
2023-05-21T20:07:50.654Z,7.00
2023-05-21T20:10:20.468Z,6.88
2023-05-21T20:12:48.731Z,7.00
2023-05-21T20:15:18.288Z,7.15
2023-05-21T20:17:46.615Z,7.43
2023-05-21T20:20:15.003Z,6.72
2023-05-21T20:22:43.280Z,8.18
2023-05-21T20:25:11.942Z,7.05
2023-05-21T20:27:44.075Z,7.50
2023-05-21T20:30:12.421Z,7.45
2023-05-21T20:32:40.756Z,6.95
2023-05-21T20:35:09.943Z,7.55
2023-05-21T20:37:38.274Z,8.07
2023-05-21T20:40:07.179Z,7.40
2023-05-21T20:42:36.500Z,7.32
2023-05-21T20:45:10.661Z,6.80
2023-05-21T20:47:38.981Z,7.80
2023-05-21T20:50:07.619Z,7.03
2023-05-21T20:52:36.212Z,7.25
2023-05-21T20:55:06.566Z,7.18
2023-05-21T20:57:34.848Z,7.53
2023-05-21T21:00:04.763Z,7.75
2023-05-21T21:02:35.734Z,7.45
2023-05-21T21:05:04.112Z,7.70
2023-05-21T21:07:33.438Z,8.15
2023-05-21T21:10:01.825Z,7.47
2023-05-21T21:12:30.163Z,7.28
2023-05-21T21:14:59.698Z,7.80
2023-05-21T21:17:28.112Z,8.40
2023-05-21T21:19:57.846Z,8.40
2023-05-21T21:22:26.448Z,8.15
2023-05-21T21:24:54.697Z,8.00
2023-05-21T21:27:22.953Z,7.95
2023-05-21T21:29:51.242Z,7.68
2023-05-21T21:32:19.580Z,8.00
2023-05-21T21:34:47.817Z,8.13
2023-05-21T21:37:17.722Z,8.05
2023-05-21T21:39:45.949Z,8.77
2023-05-21T21:42:14.218Z,8.00
2023-05-21T21:44:42.878Z,8.23
2023-05-21T21:47:11.186Z,8.63
2023-05-21T21:49:39.585Z,7.85
2023-05-21T21:52:08.256Z,9.02
2023-05-21T21:54:37.905Z,8.48
2023-05-21T21:57:06.328Z,8.20
2023-05-21T21:59:34.629Z,8.10
2023-05-21T22:02:02.928Z,8.35
2023-05-21T22:04:31.293Z,8.63
2023-05-21T22:06:59.595Z,8.73
2023-05-21T22:09:27.950Z,8.27
2023-05-21T22:11:58.468Z,7.95
2023-05-21T22:14:26.734Z,8.25
2023-05-21T22:16:55.485Z,8.32
2023-05-21T22:19:24.201Z,8.15
2023-05-21T22:21:54.042Z,8.00
2023-05-21T22:24:31.938Z,8.50
2023-05-21T22:27:03.002Z,8.43
2023-05-21T22:29:34.483Z,8.73
2023-05-21T22:32:02.986Z,8.63
2023-05-21T22:34:31.524Z,9.15
2023-05-21T22:36:59.881Z,8.63
2023-05-21T22:39:28.131Z,8.52
2023-05-21T22:41:56.398Z,8.15
2023-05-21T22:44:26.093Z,9.43
2023-05-21T22:46:56.531Z,9.32
2023-05-21T22:49:26.392Z,9.20
2023-05-21T22:51:55.669Z,9.07
2023-05-21T22:54:24.256Z,9.63
2023-05-21T22:56:52.669Z,8.90
2023-05-21T22:59:21.007Z,9.32
2023-05-21T23:01:50.722Z,9.80
2023-05-21T23:04:22.154Z,9.30
2023-05-21T23:06:57.512Z,8.68
2023-05-21T23:09:27.987Z,8.77
2023-05-21T23:11:56.575Z,9.10
2023-05-21T23:14:26.208Z,8.77
2023-05-21T23:16:56.016Z,9.95
2023-05-21T23:19:24.310Z,8.98
2023-05-21T23:21:52.812Z,8.60
2023-05-21T23:24:21.274Z,9.20
2023-05-21T23:26:49.897Z,9.57
2023-05-21T23:29:18.980Z,9.15
2023-05-21T23:31:47.492Z,9.13
2023-05-21T23:34:17.167Z,9.73
2023-05-21T23:36:45.664Z,9.65
2023-05-21T23:39:18.111Z,9.82
2023-05-21T23:41:46.513Z,9.82
2023-05-21T23:44:19.293Z,9.77
2023-05-21T23:46:47.569Z,9.57
2023-05-21T23:49:17.312Z,10.70
2023-05-21T23:51:46.719Z,9.63
2023-05-21T23:54:17.969Z,9.40
2023-05-21T23:56:46.563Z,10.52
2023-05-21T23:59:16.956Z,10.07
